Time;durP1;ratioP1;P1;durP2;ratioP2;P2;SDS_P1;SDS_P2;PMS_P1;PMS_P2;Temp;Humidity;BMP_temperature;BMP_pressure;BME280_temperature;BME280_humidity;BME280_pressure;Samples;Min_cycle;Max_cycle;Signal;HPM_P1;HPM_P2
2023/12/16 00:00:38;;;;;;;3.72;1.80;;;10.20;71.50;;;;;;2291519;56;21444;-67
2023/12/16 00:03:04;;;;;;;3.15;1.35;;;10.20;71.60;;;;;;2283543;56;20986;-67
2023/12/16 00:05:31;;;;;;;3.12;1.42;;;10.20;71.60;;;;;;2261340;55;20918;-67
2023/12/16 00:07:57;;;;;;;3.42;1.75;;;10.10;71.50;;;;;;2286098;55;20967;-67
2023/12/16 00:10:24;;;;;;;2.97;1.30;;;10.10;71.50;;;;;;2258964;55;20975;-67
2023/12/16 00:12:50;;;;;;;2.50;1.20;;;10.00;71.40;;;;;;2229241;56;20946;-67
2023/12/16 00:15:19;;;;;;;3.10;1.60;;;10.00;71.40;;;;;;2489454;54;20946;-67
2023/12/16 00:17:47;;;;;;;5.05;1.40;;;10.00;71.20;;;;;;2261093;56;21970;-67
2023/12/16 00:20:13;;;;;;;2.67;1.20;;;9.90;72.20;;;;;;2261325;56;20978;-67
2023/12/16 00:22:40;;;;;;;2.65;1.33;;;9.80;72.10;;;;;;2261711;56;20953;-66
2023/12/16 00:25:10;;;;;;;3.78;1.37;;;9.80;72.10;;;;;;2490065;54;21706;-67
2023/12/16 00:27:37;;;;;;;3.25;1.25;;;9.80;72.00;;;;;;2268648;56;20954;-66
2023/12/16 00:30:06;;;;;;;2.83;1.15;;;9.70;72.40;;;;;;2260721;56;21499;-66
2023/12/16 00:32:33;;;;;;;2.92;1.30;;;9.70;72.10;;;;;;2243479;56;20970;-66
2023/12/16 00:34:59;;;;;;;3.00;1.23;;;9.60;72.10;;;;;;2260719;56;21831;-67
2023/12/16 00:37:26;;;;;;;4.12;1.30;;;9.60;72.30;;;;;;2260829;56;21038;-67
2023/12/16 00:39:54;;;;;;;3.83;1.62;;;9.50;72.20;;;;;;2261322;56;21478;-66
2023/12/16 00:42:22;;;;;;;3.60;1.52;;;9.50;72.40;;;;;;2261362;56;21058;-67
2023/12/16 00:44:51;;;;;;;3.72;1.50;;;9.50;72.60;;;;;;2489819;54;20935;-67
2023/12/16 00:47:17;;;;;;;3.28;1.60;;;9.40;72.70;;;;;;2260973;55;21050;-67
2023/12/16 00:49:45;;;;;;;3.40;1.60;;;9.40;72.80;;;;;;2261428;56;20962;-67
2023/12/16 00:52:11;;;;;;;7.75;1.92;;;9.40;72.90;;;;;;2489077;54;20978;-66
2023/12/16 00:54:41;;;;;;;4.25;1.85;;;9.40;73.00;;;;;;2261121;56;20943;-67
2023/12/16 00:57:07;;;;;;;4.87;1.40;;;9.40;73.20;;;;;;2261114;56;21014;-66
2023/12/16 00:59:35;;;;;;;4.15;1.73;;;9.40;73.30;;;;;;2266357;55;20955;-67
2023/12/16 01:02:02;;;;;;;3.08;1.33;;;9.40;73.40;;;;;;2261070;55;20998;-67
2023/12/16 01:04:30;;;;;;;3.50;1.40;;;9.40;73.50;;;;;;2266034;56;21993;-67
2023/12/16 01:06:57;;;;;;;4.45;1.75;;;9.40;73.60;;;;;;2261088;55;20967;-66
2023/12/16 01:09:24;;;;;;;10.95;5.87;;;9.40;73.70;;;;;;2266090;56;21012;-66
2023/12/16 01:11:51;;;;;;;21.58;9.27;;;9.40;73.70;;;;;;2260808;55;20954;-66
2023/12/16 01:14:18;;;;;;;15.38;8.13;;;9.40;73.80;;;;;;2259036;55;20974;-67
2023/12/16 01:16:45;;;;;;;13.55;7.43;;;9.40;73.80;;;;;;2236682;56;20995;-67
2023/12/16 01:19:11;;;;;;;7.95;4.93;;;9.40;73.80;;;;;;2490315;54;20963;-67
2023/12/16 01:21:41;;;;;;;7.05;3.90;;;9.40;73.80;;;;;;2495917;55;21006;-66
2023/12/16 01:24:09;;;;;;;5.00;2.75;;;9.40;73.70;;;;;;2261616;55;21070;-68
2023/12/16 01:26:35;;;;;;;5.93;2.90;;;9.40;73.70;;;;;;2278685;55;21675;-67
2023/12/16 01:29:02;;;;;;;7.10;2.55;;;9.40;73.70;;;;;;2267819;56;20985;-67
2023/12/16 01:31:30;;;;;;;4.75;2.70;;;9.40;73.70;;;;;;2259838;56;21679;-67
2023/12/16 01:33:57;;;;;;;4.37;2.20;;;9.40;73.70;;;;;;2261336;56;20990;-67
2023/12/16 01:36:24;;;;;;;3.55;1.62;;;9.40;73.80;;;;;;2488410;54;20978;-67
2023/12/16 01:38:53;;;;;;;6.35;2.75;;;9.50;74.60;;;;;;2489907;54;20970;-67
2023/12/16 01:41:22;;;;;;;5.30;2.70;;;9.50;73.80;;;;;;2489343;54;21022;-67
2023/12/16 01:43:51;;;;;;;5.40;2.72;;;9.50;73.80;;;;;;2261309;56;20919;-66
2023/12/16 01:46:18;;;;;;;5.57;2.55;;;9.50;73.90;;;;;;2261362;55;20975;-67
2023/12/16 01:48:48;;;;;;;5.43;2.85;;;9.50;73.90;;;;;;2486391;55;20988;-67
2023/12/16 01:51:17;;;;;;;3.97;1.95;;;9.50;73.90;;;;;;2271524;56;20942;-66
2023/12/16 01:53:44;;;;;;;3.40;1.58;;;9.50;73.90;;;;;;2475825;55;21569;-67
2023/12/16 01:56:10;;;;;;;3.92;1.80;;;9.50;74.00;;;;;;2255145;56;20963;-67
2023/12/16 01:58:37;;;;;;;3.15;1.48;;;9.50;74.00;;;;;;2258540;56;21002;-67
2023/12/16 02:01:04;;;;;;;3.50;1.70;;;9.60;74.00;;;;;;2260665;56;20974;-67
2023/12/16 02:03:30;;;;;;;3.75;1.70;;;9.50;73.80;;;;;;2259498;56;21782;-67
2023/12/16 02:05:57;;;;;;;4.55;1.90;;;9.50;73.70;;;;;;2251369;56;20993;-66
2023/12/16 02:08:24;;;;;;;3.75;1.87;;;9.60;73.80;;;;;;2260767;56;21892;-67
2023/12/16 02:10:50;;;;;;;3.97;1.95;;;9.50;73.60;;;;;;2266141;56;20928;-66
2023/12/16 02:13:18;;;;;;;4.50;2.28;;;9.50;73.60;;;;;;2498841;54;21699;-66
2023/12/16 02:15:45;;;;;;;5.82;2.47;;;9.50;73.60;;;;;;2265597;55;21006;-67
2023/12/16 02:18:12;;;;;;;4.40;2.42;;;9.50;73.60;;;;;;2260742;55;21034;-66
2023/12/16 02:20:42;;;;;;;4.30;2.10;;;9.50;73.60;;;;;;2255350;56;20965;-67
2023/12/16 02:23:14;;;;;;;4.28;2.20;;;9.50;73.50;;;;;;2258493;56;21003;-66
2023/12/16 02:25:42;;;;;;;;;;;9.60;73.60;;;;;;2255367;56;21006;-67
2023/12/16 02:28:13;;;;;;;3.75;1.83;;;9.50;72.70;;;;;;2260514;56;20136;-67
2023/12/16 02:30:39;;;;;;;5.82;2.50;;;9.50;73.30;;;;;;2488890;54;21002;-67
2023/12/16 02:33:11;;;;;;;4.80;2.37;;;9.50;73.40;;;;;;2261289;56;21527;-67
2023/12/16 02:35:38;;;;;;;4.60;2.12;;;9.50;73.40;;;;;;2261241;56;21026;-67
2023/12/16 02:38:04;;;;;;;4.65;2.42;;;9.50;73.40;;;;;;2260724;56;20960;-68
2023/12/16 02:40:38;;;;;;;5.45;2.37;;;9.50;73.40;;;;;;2260393;56;20958;-67
2023/12/16 02:43:05;;;;;;;4.70;2.50;;;9.50;73.40;;;;;;2260683;56;21010;-67
2023/12/16 02:45:32;;;;;;;5.25;2.55;;;9.50;73.40;;;;;;2255778;56;20949;-67
2023/12/16 02:47:59;;;;;;;4.75;2.47;;;9.50;73.40;;;;;;2256835;56;20947;-67
2023/12/16 02:50:27;;;;;;;4.87;2.60;;;9.40;73.40;;;;;;2246206;56;21020;-67
2023/12/16 02:52:53;;;;;;;8.75;2.80;;;9.40;73.30;;;;;;2471678;55;21023;-66
2023/12/16 02:55:20;;;;;;;4.68;2.40;;;9.40;73.40;;;;;;2243199;56;21396;-66
2023/12/16 02:57:47;;;;;;;6.05;2.80;;;9.40;73.40;;;;;;2270507;56;21596;-67
2023/12/16 03:00:14;;;;;;;4.97;2.65;;;9.40;73.50;;;;;;2260425;56;20966;-67
2023/12/16 03:02:41;;;;;;;4.95;2.58;;;9.40;73.50;;;;;;2489587;55;20984;-67
2023/12/16 03:05:07;;;;;;;4.15;2.37;;;9.40;73.60;;;;;;2507831;54;21036;-67
2023/12/16 03:07:37;;;;;;;4.35;2.37;;;9.40;73.60;;;;;;2265298;56;20942;-66
2023/12/16 03:10:05;;;;;;;4.53;2.33;;;9.40;73.70;;;;;;2260214;56;20954;-68
2023/12/16 03:12:31;;;;;;;3.78;1.80;;;9.40;73.70;;;;;;2260823;56;21483;-67
2023/12/16 03:14:58;;;;;;;4.45;2.40;;;9.40;73.70;;;;;;2490092;54;20982;-67
2023/12/16 03:17:24;;;;;;;4.15;2.00;;;9.40;73.70;;;;;;2260721;56;21030;-68
2023/12/16 03:19:52;;;;;;;4.30;2.28;;;9.40;73.70;;;;;;2254761;56;21023;-66
2023/12/16 03:22:19;;;;;;;4.40;2.08;;;9.40;73.60;;;;;;2256721;56;21078;-66
2023/12/16 03:24:46;;;;;;;4.00;2.15;;;9.40;74.10;;;;;;2488619;54;21519;-67
2023/12/16 03:27:12;;;;;;;3.17;1.70;;;9.40;73.40;;;;;;2259954;56;20934;-67
2023/12/16 03:29:39;;;;;;;4.50;1.83;;;9.40;73.40;;;;;;2489036;55;21376;-67
2023/12/16 03:32:06;;;;;;;3.17;1.83;;;9.40;73.40;;;;;;2260597;56;20972;-67
2023/12/16 03:34:34;;;;;;;4.37;1.98;;;9.30;73.40;;;;;;2261269;56;20978;-67
2023/12/16 03:37:00;;;;;;;5.43;2.30;;;9.40;73.60;;;;;;2261361;55;20942;-67
2023/12/16 03:39:29;;;;;;;3.83;1.90;;;9.30;73.50;;;;;;2275267;55;21087;-67
2023/12/16 03:42:00;;;;;;;3.70;2.08;;;9.30;73.60;;;;;;2301081;56;21524;-67
2023/12/16 03:44:28;;;;;;;3.80;1.77;;;9.40;73.80;;;;;;2299659;55;21051;-66
2023/12/16 03:46:54;;;;;;;3.33;1.52;;;9.40;73.70;;;;;;2300140;55;21476;-67
2023/12/16 03:49:21;;;;;;;3.92;1.87;;;9.30;73.60;;;;;;2300241;55;21019;-66
2023/12/16 03:51:49;;;;;;;3.17;1.67;;;9.40;73.60;;;;;;2299824;56;20933;-67
2023/12/16 03:54:18;;;;;;;4.55;2.20;;;9.40;73.50;;;;;;2300386;56;20979;-66
2023/12/16 03:56:47;;;;;;;3.58;1.80;;;9.30;73.40;;;;;;2300296;56;21431;-66
2023/12/16 03:59:17;;;;;;;4.07;1.85;;;9.30;73.40;;;;;;2300129;56;21011;-67
2023/12/16 04:01:45;;;;;;;3.47;1.77;;;9.30;73.50;;;;;;2537494;54;20948;-67
2023/12/16 04:04:12;;;;;;;4.40;1.67;;;9.40;73.60;;;;;;2300166;56;21528;-67
2023/12/16 04:06:38;;;;;;;3.15;1.48;;;9.30;73.50;;;;;;2300193;56;21504;-67
2023/12/16 04:09:05;;;;;;;2.92;1.33;;;9.30;74.20;;;;;;2288011;55;21436;-67
2023/12/16 04:11:36;;;;;;;3.05;1.70;;;9.30;73.40;;;;;;2294267;56;21011;-66
2023/12/16 04:14:03;;;;;;;4.37;1.93;;;9.30;73.30;;;;;;2290573;54;20953;-67
2023/12/16 04:16:30;;;;;;;3.95;1.95;;;9.30;73.30;;;;;;2296175;55;21515;-66
2023/12/16 04:18:56;;;;;;;3.90;2.15;;;9.30;73.30;;;;;;2266662;56;20992;-67
2023/12/16 04:21:24;;;;;;;4.82;1.80;;;9.30;73.30;;;;;;2300247;55;22012;-67
2023/12/16 04:23:55;;;;;;;3.75;1.90;;;9.20;73.20;;;;;;2300713;56;20955;-66
2023/12/16 04:26:21;;;;;;;3.30;1.60;;;9.30;73.20;;;;;;2536774;54;21777;-67
2023/12/16 04:28:48;;;;;;;4.60;1.62;;;9.20;73.10;;;;;;2287878;55;21551;-67
2023/12/16 04:31:16;;;;;;;3.50;1.73;;;9.20;73.10;;;;;;2300275;55;20927;-66
2023/12/16 04:33:55;;;;;;;3.10;1.60;;;9.20;73.10;;;;;;2536971;54;21138;-67
2023/12/16 04:36:22;;;;;;;3.20;1.80;;;9.20;73.20;;;;;;2300180;55;20957;-67
2023/12/16 04:38:48;;;;;;;3.20;1.80;;;9.20;73.20;;;;;;2300551;55;21011;-67
2023/12/16 04:41:14;;;;;;;3.60;1.75;;;9.20;73.20;;;;;;2300389;56;21236;-67
2023/12/16 04:43:41;;;;;;;4.15;1.70;;;9.10;73.10;;;;;;2299775;55;21008;-66
2023/12/16 04:46:07;;;;;;;3.25;1.62;;;9.20;73.30;;;;;;2297627;55;20942;-67
2023/12/16 04:48:35;;;;;;;3.95;1.80;;;9.20;73.30;;;;;;2293326;56;21709;-66
2023/12/16 04:51:04;;;;;;;3.80;1.75;;;9.10;73.20;;;;;;2300750;55;20988;-67
2023/12/16 04:53:31;;;;;;;4.18;2.35;;;9.10;73.20;;;;;;2300223;55;21031;-67
2023/12/16 04:55:57;;;;;;;3.47;1.77;;;9.10;73.20;;;;;;2300390;55;21496;-67
2023/12/16 04:58:25;;;;;;;3.85;2.03;;;9.10;73.30;;;;;;2537720;54;20907;-67
2023/12/16 05:00:52;;;;;;;3.67;1.80;;;9.10;73.30;;;;;;2300710;55;21015;-66
2023/12/16 05:03:19;;;;;;;3.40;1.75;;;9.10;73.20;;;;;;2289885;56;20938;-67
2023/12/16 05:05:47;;;;;;;3.83;1.92;;;9.10;73.10;;;;;;2298415;56;21631;-66
2023/12/16 05:08:14;;;;;;;3.20;1.98;;;9.10;73.10;;;;;;2536570;54;21044;-67
2023/12/16 05:10:41;;;;;;;4.22;1.73;;;9.10;73.10;;;;;;2290819;55;21002;-67
2023/12/16 05:13:09;;;;;;;3.42;1.70;;;9.10;73.10;;;;;;2297341;55;21004;-67
2023/12/16 05:15:37;;;;;;;3.97;1.48;;;9.10;73.80;;;;;;2299890;56;21382;-66
2023/12/16 05:18:06;;;;;;;2.87;1.50;;;9.00;72.90;;;;;;2300298;56;20924;-67
2023/12/16 05:20:33;;;;;;;3.30;1.75;;;9.00;72.90;;;;;;2299740;55;20964;-66
2023/12/16 05:22:59;;;;;;;3.58;1.80;;;9.00;72.90;;;;;;2300467;56;21268;-67
2023/12/16 05:25:28;;;;;;;2.92;1.37;;;9.00;72.90;;;;;;2537250;54;20931;-67
2023/12/16 05:27:55;;;;;;;3.92;2.00;;;9.00;72.80;;;;;;2300686;56;20975;-66
2023/12/16 05:30:22;;;;;;;4.37;1.90;;;9.00;72.90;;;;;;2300555;56;21192;-66
2023/12/16 05:32:48;;;;;;;3.33;1.60;;;8.90;72.80;;;;;;2536917;54;20999;-67
2023/12/16 05:35:15;;;;;;;3.50;1.85;;;8.90;72.80;;;;;;2298398;55;21402;-67
2023/12/16 05:37:41;;;;;;;4.05;1.98;;;8.90;72.80;;;;;;2290441;55;20951;-67
2023/12/16 05:40:15;;;;;;;4.05;1.98;;;8.90;72.90;;;;;;2300924;55;21035;-67
2023/12/16 05:42:41;;;;;;;5.72;2.35;;;8.90;72.80;;;;;;2496464;54;21020;-66
2023/12/16 05:45:22;;;;;;;4.45;2.62;;;8.90;72.90;;;;;;2301015;55;20991;-67
2023/12/16 05:47:52;;;;;;;4.82;2.83;;;8.90;72.80;;;;;;2299974;55;20968;-66
2023/12/16 05:50:18;;;;;;;5.40;2.95;;;8.80;72.90;;;;;;2300193;55;21027;-67
2023/12/16 05:52:45;;;;;;;4.32;2.72;;;8.80;73.10;;;;;;2299212;54;20994;-67
2023/12/16 05:55:11;;;;;;;3.92;2.40;;;8.80;73.20;;;;;;2300237;56;20980;-66
2023/12/16 05:57:38;;;;;;;4.80;2.47;;;8.80;73.20;;;;;;2536363;54;20948;-66
2023/12/16 06:00:08;;;;;;;3.60;2.00;;;8.80;73.30;;;;;;2295762;56;21002;-67
2023/12/16 06:02:36;;;;;;;4.03;2.15;;;8.80;73.30;;;;;;2292639;56;21261;-67
2023/12/16 06:05:03;;;;;;;4.95;2.15;;;8.80;73.30;;;;;;2296469;55;22070;-67
2023/12/16 06:07:30;;;;;;;4.80;2.40;;;8.80;73.30;;;;;;2271675;56;20958;-67
2023/12/16 06:10:00;;;;;;;5.20;2.87;;;8.80;73.30;;;;;;2293932;55;20975;-67
2023/12/16 06:12:27;;;;;;;4.30;2.58;;;8.80;73.20;;;;;;2299640;55;21710;-66
2023/12/16 06:14:54;;;;;;;3.35;2.03;;;8.80;73.30;;;;;;2299830;55;20956;-66
2023/12/16 06:17:21;;;;;;;3.87;2.12;;;8.80;73.40;;;;;;2299893;55;21022;-67
2023/12/16 06:19:47;;;;;;;3.90;2.45;;;8.80;73.50;;;;;;2537586;54;20971;-67
2023/12/16 06:22:15;;;;;;;4.32;1.95;;;8.80;73.60;;;;;;2300633;55;20925;-67
2023/12/16 06:24:41;;;;;;;4.12;2.33;;;8.80;73.60;;;;;;2299821;55;20995;-66
2023/12/16 06:27:08;;;;;;;5.40;2.60;;;8.80;73.70;;;;;;2538004;54;21154;-67
2023/12/16 06:29:36;;;;;;;5.30;2.45;;;8.80;73.60;;;;;;2447048;55;20903;-67
2023/12/16 06:32:05;;;;;;;5.62;2.92;;;8.80;73.60;;;;;;2261498;56;20966;-66
2023/12/16 06:34:32;;;;;;;4.80;2.60;;;8.80;73.60;;;;;;2261099;56;20947;-67
2023/12/16 06:37:00;;;;;;;4.05;2.30;;;8.80;73.60;;;;;;2489619;54;20963;-67
2023/12/16 06:39:26;;;;;;;4.40;2.00;;;8.80;73.70;;;;;;2261650;56;21026;-65
2023/12/16 06:41:54;;;;;;;3.87;2.35;;;8.80;73.70;;;;;;2257339;55;20954;-67
2023/12/16 06:44:27;;;;;;;3.97;2.20;;;8.80;73.70;;;;;;2259154;56;21166;-66
2023/12/16 06:46:54;;;;;;;5.00;1.98;;;8.80;73.70;;;;;;2231340;56;21042;-66
2023/12/16 06:49:20;;;;;;;3.22;1.87;;;8.80;73.70;;;;;;2460472;55;21491;-65
2023/12/16 06:51:50;;;;;;;4.00;2.12;;;8.80;73.70;;;;;;2263790;56;20955;-66
2023/12/16 06:54:18;;;;;;;4.03;2.22;;;8.80;73.60;;;;;;2258985;56;21488;-66
2023/12/16 06:56:45;;;;;;;4.40;2.53;;;8.80;73.70;;;;;;2486431;55;21457;-66
2023/12/16 06:59:15;;;;;;;4.43;2.83;;;8.80;73.70;;;;;;2481775;55;20952;-67
2023/12/16 07:01:41;;;;;;;4.50;2.45;;;8.80;73.80;;;;;;2261201;55;20970;-67
2023/12/16 07:04:07;;;;;;;4.20;2.58;;;8.80;73.80;;;;;;2276413;55;21103;-66
2023/12/16 07:06:35;;;;;;;3.72;2.08;;;8.90;74.00;;;;;;2489891;55;20955;-67
2023/12/16 07:09:01;;;;;;;4.35;2.60;;;8.90;74.00;;;;;;2489902;55;21010;-66
2023/12/16 07:11:28;;;;;;;3.85;2.15;;;8.90;73.90;;;;;;2260901;55;21048;-66
2023/12/16 07:13:56;;;;;;;4.90;2.15;;;8.90;73.90;;;;;;2496051;55;21260;-67
2023/12/16 07:16:23;;;;;;;4.45;2.20;;;8.90;73.80;;;;;;2274091;55;20980;-66
2023/12/16 07:18:51;;;;;;;3.53;1.83;;;8.90;73.80;;;;;;2489721;55;21278;-67
2023/12/16 07:21:19;;;;;;;3.97;1.92;;;8.90;73.80;;;;;;2266425;56;20962;-65
2023/12/16 07:23:45;;;;;;;5.37;2.28;;;8.90;73.80;;;;;;2261014;55;20966;-66
2023/12/16 07:26:12;;;;;;;3.53;1.83;;;8.90;73.80;;;;;;2267073;56;20963;-66
2023/12/16 07:28:42;;;;;;;4.53;2.15;;;9.00;73.90;;;;;;2261102;55;20927;-67
2023/12/16 07:31:08;;;;;;;3.85;1.87;;;9.00;73.80;;;;;;2261896;55;21054;-67
2023/12/16 07:33:38;;;;;;;3.65;2.17;;;9.00;73.80;;;;;;2264896;55;21055;-67
2023/12/16 07:36:05;;;;;;;3.65;2.05;;;9.00;73.80;;;;;;2251356;55;20958;-66
2023/12/16 07:38:32;;;;;;;3.47;1.70;;;9.00;73.80;;;;;;2260396;55;21036;-66
2023/12/16 07:40:58;;;;;;;4.60;2.10;;;9.00;73.80;;;;;;2266542;56;20978;-67
2023/12/16 07:43:26;;;;;;;4.25;2.37;;;9.00;73.80;;;;;;2260861;56;20986;-67
2023/12/16 07:45:52;;;;;;;4.40;2.62;;;9.00;73.80;;;;;;2238772;56;21073;-66
2023/12/16 07:48:18;;;;;;;4.65;2.30;;;9.00;73.80;;;;;;2294779;56;21516;-67
2023/12/16 07:50:45;;;;;;;3.70;2.10;;;9.00;73.90;;;;;;2300267;55;20931;-67
2023/12/16 07:53:13;;;;;;;6.22;2.83;;;9.00;74.00;;;;;;2276086;56;21418;-66
2023/12/16 07:55:42;;;;;;;3.80;2.20;;;9.00;74.00;;;;;;2526871;54;20920;-67
2023/12/16 07:58:10;;;;;;;5.85;2.75;;;9.00;74.00;;;;;;2286068;55;21030;-67
2023/12/16 08:00:36;;;;;;;5.25;2.95;;;9.00;74.10;;;;;;2291762;55;20937;-67
2023/12/16 08:03:03;;;;;;;3.87;2.25;;;9.00;74.10;;;;;;2295300;56;21036;-66
2023/12/16 08:05:30;;;;;;;5.37;2.65;;;9.00;74.10;;;;;;2300434;55;20995;-67
2023/12/16 08:07:56;;;;;;;5.62;3.00;;;9.10;74.20;;;;;;2289079;55;21005;-67
2023/12/16 08:10:24;;;;;;;5.50;3.28;;;9.00;74.00;;;;;;2537289;54;20968;-67
2023/12/16 08:12:52;;;;;;;5.50;3.00;;;9.10;74.20;;;;;;2288232;56;20939;-66
2023/12/16 08:15:18;;;;;;;6.25;3.40;;;9.10;74.20;;;;;;2301084;55;20964;-66
2023/12/16 08:17:44;;;;;;;10.20;6.25;;;9.10;74.30;;;;;;2291080;55;21977;-67
2023/12/16 08:20:11;;;;;;;8.57;5.32;;;9.10;74.40;;;;;;2260580;56;20939;-66
2023/12/16 08:22:39;;;;;;;8.93;5.12;;;9.10;74.40;;;;;;2489631;55;21495;-66
2023/12/16 08:25:07;;;;;;;8.18;5.10;;;9.20;74.50;;;;;;2266421;55;21036;-67
2023/12/16 08:27:33;;;;;;;8.10;4.62;;;9.20;74.60;;;;;;2266337;56;20945;-67
2023/12/16 08:30:01;;;;;;;6.57;4.40;;;9.20;74.70;;;;;;2260939;55;21093;-67
2023/12/16 08:32:32;;;;;;;7.45;4.72;;;9.20;74.70;;;;;;2260594;56;20954;-66
2023/12/16 08:34:59;;;;;;;7.53;4.83;;;9.30;74.80;;;;;;2489679;54;20998;-67
2023/12/16 08:37:26;;;;;;;8.70;5.07;;;9.30;74.80;;;;;;2489722;54;20971;-67
2023/12/16 08:39:53;;;;;;;7.68;4.90;;;9.30;74.90;;;;;;2259936;56;20951;-67
2023/12/16 08:42:22;;;;;;;8.00;4.97;;;9.40;74.90;;;;;;2462913;54;21439;-67
2023/12/16 08:44:49;;;;;;;6.87;4.50;;;9.40;74.70;;;;;;2260234;55;21069;-67
2023/12/16 08:47:15;;;;;;;8.90;5.85;;;9.40;74.70;;;;;;2260658;56;21813;-67
2023/12/16 08:49:44;;;;;;;8.05;4.93;;;9.40;74.70;;;;;;2260700;56;20935;-67
2023/12/16 08:52:12;;;;;;;6.37;4.00;;;9.40;74.60;;;;;;2489193;55;20930;-67
2023/12/16 08:54:41;;;;;;;6.07;3.78;;;9.50;74.70;;;;;;2265787;56;21503;-66
2023/12/16 08:57:08;;;;;;;7.07;4.35;;;9.50;74.60;;;;;;2262637;55;20999;-67
2023/12/16 08:59:35;;;;;;;6.82;4.62;;;9.50;74.50;;;;;;2247586;55;21030;-67
2023/12/16 09:02:05;;;;;;;7.18;4.50;;;9.50;74.50;;;;;;2494879;55;21459;-67
2023/12/16 09:04:32;;;;;;;7.97;4.18;;;9.50;74.50;;;;;;2247085;56;21507;-67
2023/12/16 09:06:59;;;;;;;6.93;4.30;;;9.60;74.70;;;;;;2260699;56;21030;-68
2023/12/16 09:09:29;;;;;;;5.57;3.45;;;9.60;74.70;;;;;;2260276;55;21002;-67
2023/12/16 09:11:55;;;;;;;8.30;4.80;;;9.60;74.80;;;;;;2490588;54;20971;-68
2023/12/16 09:14:22;;;;;;;7.00;4.47;;;9.60;74.90;;;;;;2265310;55;21373;-67
2023/12/16 09:16:48;;;;;;;8.75;6.62;;;9.70;75.00;;;;;;2477568;55;21362;-67
2023/12/16 09:19:15;;;;;;;9.77;6.93;;;9.70;75.00;;;;;;2260496;55;21030;-67
2023/12/16 09:21:42;;;;;;;7.43;5.37;;;9.70;75.00;;;;;;2489925;55;20885;-67
2023/12/16 09:24:09;;;;;;;7.22;4.70;;;9.80;75.20;;;;;;2266164;56;20970;-67
2023/12/16 09:26:36;;;;;;;6.62;4.47;;;9.80;75.20;;;;;;2488748;55;21042;-68
2023/12/16 09:29:04;;;;;;;6.03;3.72;;;9.80;75.20;;;;;;2265859;56;20938;-68
2023/12/16 09:31:33;;;;;;;7.03;4.18;;;9.90;75.20;;;;;;2260801;55;21519;-67
2023/12/16 09:34:02;;;;;;;6.35;4.07;;;9.90;75.10;;;;;;2260865;55;21703;-67
2023/12/16 09:36:29;;;;;;;6.32;4.12;;;9.90;75.10;;;;;;2489135;55;20980;-68
2023/12/16 09:38:59;;;;;;;7.20;4.60;;;9.90;75.10;;;;;;2495783;55;20915;-67
2023/12/16 09:41:29;;;;;;;6.07;3.80;;;9.90;75.10;;;;;;2264295;56;21042;-66
2023/12/16 09:43:58;;;;;;;6.55;3.90;;;10.00;74.10;;;;;;2240476;56;20958;-67
2023/12/16 09:46:32;;;;;;;5.53;3.65;;;10.00;74.10;;;;;;2470065;55;20979;-67
2023/12/16 09:49:05;;;;;;;6.28;3.90;;;10.10;74.20;;;;;;2472354;54;20963;-67
2023/12/16 09:51:31;;;;;;;5.68;3.53;;;10.10;74.00;;;;;;2290713;55;20992;-66
2023/12/16 09:53:57;;;;;;;7.22;4.20;;;10.10;74.10;;;;;;2525452;54;20957;-67
2023/12/16 09:56:24;;;;;;;5.72;3.78;;;10.00;74.00;;;;;;2289869;56;20962;-67
2023/12/16 09:58:51;;;;;;;6.80;4.37;;;10.20;74.10;;;;;;2524582;54;21313;-67
2023/12/16 10:01:19;;;;;;;5.97;4.18;;;10.20;74.00;;;;;;2290812;56;20974;-67
2023/12/16 10:03:46;;;;;;;8.55;4.75;;;10.20;74.00;;;;;;2290331;56;20981;-67
2023/12/16 10:06:12;;;;;;;6.95;4.72;;;10.30;74.10;;;;;;2290366;56;20958;-69
2023/12/16 10:08:40;;;;;;;8.38;5.18;;;10.30;74.20;;;;;;2290736;56;20941;-70
2023/12/16 10:11:07;;;;;;;7.62;4.75;;;10.30;74.20;;;;;;2290140;56;20982;-67
2023/12/16 10:14:05;;;;;;;8.93;5.50;;;10.30;74.10;;;;;;2284134;55;21608;-68
2023/12/16 10:16:31;;;;;;;8.07;5.47;;;10.40;73.80;;;;;;2276696;56;20934;-68
2023/12/16 10:18:58;;;;;;;6.62;4.72;;;10.40;74.00;;;;;;2290502;56;20975;-69
2023/12/16 10:21:30;;;;;;;8.48;4.57;;;10.40;74.00;;;;;;2290731;56;20933;-70
2023/12/16 10:24:00;;;;;;;6.72;4.07;;;10.40;73.90;;;;;;2525317;54;20925;-67
2023/12/16 10:26:35;;;;;;;5.95;4.00;;;10.50;74.10;;;;;;2291010;57;20982;-70
2023/12/16 10:29:04;;;;;;;6.62;4.32;;;10.50;74.00;;;;;;2290176;56;20969;-67
2023/12/16 10:31:31;;;;;;;6.22;3.78;;;10.50;74.00;;;;;;2290602;56;20977;-67
2023/12/16 10:34:01;;;;;;;5.70;3.85;;;10.60;74.00;;;;;;2289908;56;20990;-71
2023/12/16 10:36:29;;;;;;;7.43;4.22;;;10.60;73.80;;;;;;2525916;54;20958;-68
2023/12/16 10:38:58;;;;;;;5.65;3.83;;;10.60;73.80;;;;;;2513925;54;20929;-69
2023/12/16 10:41:24;;;;;;;6.32;4.12;;;10.60;73.80;;;;;;2286041;55;21059;-68
2023/12/16 10:43:50;;;;;;;7.18;4.37;;;10.60;73.70;;;;;;2519259;54;20941;-68
2023/12/16 10:46:18;;;;;;;5.90;3.97;;;10.60;73.70;;;;;;2271362;56;21452;-68
2023/12/16 10:48:50;;;;;;;6.28;3.95;;;10.60;73.80;;;;;;2260246;55;20987;-68
2023/12/16 10:51:16;;;;;;;6.80;4.28;;;10.70;74.00;;;;;;2263708;56;20966;-67
2023/12/16 10:53:48;;;;;;;6.12;3.75;;;10.70;74.10;;;;;;2269452;55;20947;-67
2023/12/16 10:56:20;;;;;;;6.95;4.07;;;10.70;74.20;;;;;;2486847;55;20931;-69
2023/12/16 10:59:00;;;;;;;7.03;5.47;;;10.70;74.40;;;;;;2259533;56;21038;-68
2023/12/16 11:01:29;;;;;;;8.43;6.10;;;10.80;74.60;;;;;;2260382;56;20947;-69
2023/12/16 11:03:57;;;;;;;8.18;5.40;;;10.80;75.10;;;;;;2265479;56;21038;-69
2023/12/16 11:06:31;;;;;;;8.48;5.07;;;10.90;75.30;;;;;;2260368;55;20970;-68
2023/12/16 11:09:03;;;;;;;7.72;5.05;;;10.90;75.10;;;;;;2272898;55;21030;-68
2023/12/16 11:11:31;;;;;;;9.48;5.30;;;11.00;75.30;;;;;;2269622;56;21018;-68
2023/12/16 11:13:57;;;;;;;11.73;7.25;;;11.00;75.20;;;;;;2260758;55;21021;-69
2023/12/16 11:16:33;;;;;;;11.77;7.87;;;11.20;75.30;;;;;;2493517;55;21007;-67
2023/12/16 11:18:59;;;;;;;8.48;5.55;;;11.10;75.00;;;;;;2494520;55;20986;-68
2023/12/16 11:21:26;;;;;;;7.62;4.82;;;11.20;75.10;;;;;;2489476;55;21038;-70
2023/12/16 11:23:53;;;;;;;8.85;5.40;;;11.20;75.00;;;;;;2509545;54;20953;-69
2023/12/16 11:26:20;;;;;;;7.05;4.78;;;11.20;75.00;;;;;;2265265;55;20951;-67
2023/12/16 11:28:52;;;;;;;7.53;4.15;;;11.30;75.00;;;;;;2491178;55;21013;-67
2023/12/16 11:31:19;;;;;;;7.10;4.65;;;11.30;74.70;;;;;;2495938;54;21002;-71
2023/12/16 11:33:46;;;;;;;6.87;4.45;;;11.30;74.80;;;;;;2262609;55;21889;-68
2023/12/16 11:36:14;;;;;;;7.05;4.37;;;11.40;74.70;;;;;;2262808;56;20994;-68
2023/12/16 11:38:44;;;;;;;7.90;5.22;;;11.40;74.70;;;;;;2491122;55;21029;-67
2023/12/16 11:41:11;;;;;;;6.65;4.57;;;11.40;74.40;;;;;;2276389;55;20974;-68
2023/12/16 11:43:47;;;;;;;6.40;4.30;;;11.40;74.30;;;;;;2487789;55;20970;-69
2023/12/16 11:46:37;;;;;;;6.50;3.92;;;11.40;74.10;;;;;;2260632;55;21042;-71
2023/12/16 11:49:06;;;;;;;6.40;4.32;;;11.40;74.00;;;;;;2261521;55;21007;-68
2023/12/16 11:51:34;;;;;;;6.60;3.72;;;11.40;74.30;;;;;;2249554;55;21027;-69
2023/12/16 11:54:03;;;;;;;5.95;3.80;;;11.40;74.20;;;;;;2488876;55;20962;-68
2023/12/16 11:56:30;;;;;;;7.75;4.68;;;11.40;74.20;;;;;;2501556;55;20974;-67
2023/12/16 11:58:57;;;;;;;7.22;4.43;;;11.50;74.20;;;;;;2258719;56;21034;-67
2023/12/16 12:01:27;;;;;;;6.03;3.58;;;11.50;74.20;;;;;;2260470;55;21058;-67
2023/12/16 12:03:54;;;;;;;6.68;3.72;;;11.50;74.10;;;;;;2270569;55;21008;-67
2023/12/16 12:06:20;;;;;;;6.93;3.50;;;11.50;74.10;;;;;;2270643;55;21830;-68
2023/12/16 12:08:47;;;;;;;8.10;4.05;;;11.50;74.10;;;;;;2254621;55;21487;-68
2023/12/16 12:11:16;;;;;;;6.10;3.12;;;11.50;74.00;;;;;;2488131;55;21059;-68
2023/12/16 12:13:45;;;;;;;5.87;3.47;;;11.50;73.90;;;;;;2259443;56;20947;-68
2023/12/16 12:16:14;;;;;;;8.02;3.20;;;11.50;73.80;;;;;;2488907;54;20976;-68
2023/12/16 12:18:41;;;;;;;5.00;3.33;;;11.50;73.60;;;;;;2259866;56;21051;-69
2023/12/16 12:21:08;;;;;;;6.93;4.25;;;11.40;74.30;;;;;;2260324;55;20983;-68
2023/12/16 12:23:36;;;;;;;7.47;4.50;;;11.40;73.60;;;;;;2489403;55;21030;-68
2023/12/16 12:26:02;;;;;;;8.25;4.30;;;11.40;73.60;;;;;;2266600;56;21772;-72
2023/12/16 12:28:29;;;;;;;7.12;4.30;;;11.40;73.60;;;;;;2524979;54;20937;-68
2023/12/16 12:31:08;;;;;;;8.40;4.43;;;11.40;73.60;;;;;;2524949;54;21435;-66
2023/12/16 12:33:35;;;;;;;8.25;5.05;;;11.40;74.00;;;;;;2289619;56;20949;-69
2023/12/16 12:36:02;;;;;;;9.88;4.82;;;11.40;73.60;;;;;;2290557;56;20929;-70
2023/12/16 12:38:29;;;;;;;6.97;4.62;;;11.40;73.60;;;;;;2289406;56;20980;-67
2023/12/16 12:40:59;;;;;;;7.45;4.22;;;11.40;73.60;;;;;;2492923;54;20936;-71
2023/12/16 12:43:30;;;;;;;6.22;3.53;;;11.40;73.50;;;;;;2291068;56;20949;-68
2023/12/16 12:46:06;;;;;;;6.35;3.67;;;11.40;73.50;;;;;;2284794;56;20987;-69
2023/12/16 12:48:33;;;;;;;6.10;2.97;;;11.40;73.30;;;;;;2494945;54;20938;-67
2023/12/16 12:51:08;;;;;;;5.40;3.28;;;11.40;73.60;;;;;;2525708;54;21025;-69
2023/12/16 12:53:38;;;;;;;5.57;2.58;;;11.30;73.20;;;;;;2507848;55;21004;-72
2023/12/16 12:56:05;;;;;;;6.20;3.37;;;11.30;73.30;;;;;;2475937;55;21504;-68
2023/12/16 12:58:31;;;;;;;5.30;3.15;;;11.30;73.50;;;;;;2479399;54;20950;-68